Weather observations for the past three days for
Gilmer County Airport
| Date | Time (edt) | Wind (kph) | Vis. (km) | Weather | Sky Cond. | Temperature (ºC) | Relative Humidity | Wind Chill (°C) | Heat Index (°C) | Pressure | Precipitation (cm) | ||||||
|---|---|---|---|---|---|---|---|---|---|---|---|---|---|---|---|---|---|
| Air | Dwpt | 6 hour | altimeter (cm) | sea level (mb) | 1 hr | 3 hr | 6 hr | ||||||||||
| Max. | Min. | ||||||||||||||||
| 06 | 19:35 | S 15 G 31 | 0.40 | Thunderstorm Heavy Rain Fog | BKN003 BKN013 OVC027 | 17 | 17 | 100% | 76.1 | 0.0 | |||||||
| 06 | 19:15 | Calm | 2.41 | Thunderstorm in Vicinity Rain Fog/Mist | FEW003 SCT013 OVC025 | 18 | 18 | 100% | 76.02 | 0.0 | |||||||
| 06 | 18:55 | SE 9 | 9.66 | Thunderstorm in Vicinity Rain Fog/Mist | OVC025 | 18 | 18 | 100% | 75.95 | 0.0 | 0.03 | ||||||
| 06 | 18:35 | Calm | 16.09 | Overcast | OVC026 | 18 | 18 | 100% | 76 | 0.0 | |||||||
| 06 | 18:15 | Calm | 16.09 | Overcast | OVC028 | 18 | 18 | 100% | 76.05 | 0.0 | |||||||
| 06 | 17:55 | Calm | 14.48 | Light Rain | OVC029 | 18 | 18 | 100% | 76.05 | 0.0 | 0.1 | ||||||
| 06 | 17:35 | Calm | 8.05 | Light Rain Fog/Mist | OVC028 | 18 | 18 | 100% | 76.02 | 0.0 | |||||||
| 06 | 17:15 | Vrbl 6 | 11.27 | Light Rain | OVC025 | 18 | 18 | 100% | 76.02 | 0.0 | |||||||
| 06 | 16:55 | NW 15 G 28 | 11.27 | Light Rain | FEW010 BKN025 OVC047 | 19 | 19 | 100% | 76.05 | 0.0 | 0.23 | ||||||
| 06 | 16:35 | S 13 | 16.09 | Overcast | SCT034 BKN041 OVC048 | 22 | 22 | 100% | 75.95 | 0.0 | |||||||
| 06 | 16:15 | S 15 | 16.09 | Mostly Cloudy | FEW031 SCT040 BKN050 | 22 | 22 | 100% | 76 | 0.0 | |||||||
| 06 | 15:55 | S 11 | 16.09 | Overcast | FEW048 BKN060 OVC075 | 22 | 22 | 100% | 76.02 | 0.0 | |||||||
| 06 | 15:35 | S 9 | 16.09 | Overcast | SCT022 BKN029 OVC080 | 21 | 21 | 100% | 76.07 | 0.0 | |||||||
| 06 | 15:15 | Calm | 16.09 | Thunderstorm in Vicinity | BKN022 OVC027 | 21 | 21 | 100% | 76.1 | 0.0 | |||||||
| 06 | 14:55 | Calm | 16.09 | Thunderstorm in Vicinity | SCT024 BKN028 OVC034 | 21 | 21 | 100% | 76.1 | 0.0 | |||||||
| 06 | 14:35 | Vrbl 6 | 16.09 | Overcast | BKN032 OVC037 | 21 | 21 | 100% | 76.15 | 0.0 | |||||||
| 06 | 14:15 | S 6 | 16.09 | Overcast | SCT018 OVC031 | 21 | 21 | 100% | 76.17 | 0.0 | |||||||
| 06 | 13:55 | S 6 | 16.09 | Overcast | OVC015 | 20 | 20 | 100% | 76.17 | 0.0 | |||||||
| 06 | 13:35 | SW 7 G 19 | 16.09 | Overcast | OVC013 | 21 | 21 | 100% | 76.17 | 0.0 | |||||||
| 06 | 13:15 | S 9 | 16.09 | Overcast | BKN009 OVC013 | 21 | 21 | 100% | 76.15 | 0.0 | |||||||
| 06 | 12:55 | S 11 | 16.09 | Overcast | BKN009 OVC014 | 20 | 20 | 100% | 76.15 | 0.0 | |||||||
| 06 | 12:35 | Calm | 16.09 | Mostly Cloudy | BKN008 BKN012 | 20 | 20 | 100% | 76.17 | 0.0 | |||||||
| 06 | 12:15 | W 7 | 14.48 | Overcast | BKN006 OVC011 | 18 | 18 | 100% | 76.2 | 0.0 | |||||||
| 06 | 11:55 | Vrbl 7 | 12.87 | Light Rain | OVC005 | 18 | 18 | 100% | 76.2 | 0.0 | 0.46 | ||||||
| 06 | 11:35 | SE 7 | 4.83 | Light Rain Fog/Mist | BKN006 OVC011 | 18 | 18 | 100% | 76.12 | 0.0 | |||||||
| 06 | 11:15 | SW 11 | 2.41 | Thunderstorm in Vicinity Rain Fog/Mist | SCT004 OVC012 | 18 | 18 | 100% | 76.28 | 0.0 | |||||||
| 06 | 10:55 | SW 11 | 4.02 | Thunderstorm in Vicinity Rain Fog/Mist | OVC014 | 18 | 18 | 100% | 76.28 | 0.0 | 0.03 | ||||||
| 06 | 10:35 | S 13 | 12.87 | Light Rain | OVC016 | 18 | 18 | 100% | 76.23 | 0.0 | |||||||
| 06 | 10:15 | S 13 | 12.87 | Light Rain | OVC018 | 18 | 18 | 100% | 76.2 | 0.0 | |||||||
| 06 | 09:55 | SW 9 | 16.09 | Overcast | OVC019 | 18 | 18 | 100% | 76.17 | 0.0 | |||||||
| 06 | 09:35 | S 7 | 16.09 | Overcast | OVC019 | 18 | 17 | 94% | 76.15 | 0.0 | |||||||
| 06 | 09:15 | S 11 | 16.09 | Overcast | OVC020 | 18 | 17 | 94% | 76.15 | 0.0 | |||||||
| 06 | 08:55 | S 9 | 16.09 | Overcast | OVC021 | 18 | 17 | 94% | 76.12 | 0.0 | |||||||
| 06 | 08:35 | S 9 | 16.09 | Overcast | OVC022 | 18 | 16 | 88% | 76.12 | 0.0 | |||||||
| 06 | 08:15 | S 9 | 16.09 | Overcast | OVC022 | 18 | 16 | 88% | 76.12 | 0.0 | |||||||
| 06 | 07:55 | S 7 | 16.09 | Overcast | OVC023 | 18 | 16 | 88% | 76.12 | 0.0 | |||||||
| 06 | 07:35 | S 7 | 16.09 | Overcast | OVC024 | 18 | 16 | 88% | 76.1 | 0.0 | |||||||
| 06 | 07:15 | S 7 | 16.09 | Overcast | OVC025 | 18 | 16 | 88% | 76.07 | 0.0 | |||||||
| 06 | 06:35 | Calm | 16.09 | Overcast | OVC030 | 18 | 16 | 88% | 76.07 | 0.0 | |||||||
| 06 | 06:15 | S 7 | 16.09 | Overcast | OVC032 | 18 | 15 | 83% | 76.05 | 0.0 | |||||||
| 06 | 05:55 | S 9 | 11.27 | Overcast | OVC033 | 19 | 15 | 78% | 76.02 | 0.0 | |||||||
| 06 | 05:35 | S 11 | 16.09 | Overcast | OVC036 | 19 | 15 | 78% | 76 | 0.0 | |||||||
| 06 | 05:15 | S 13 | 16.09 | Overcast | OVC040 | 19 | 15 | 78% | 76 | 0.0 | |||||||
| 06 | 04:55 | S 9 | 16.09 | Overcast | OVC039 | 19 | 15 | 78% | 75.97 | 0.0 | |||||||
| 06 | 04:35 | S 7 | 16.09 | Overcast | OVC040 | 19 | 14 | 73% | 76 | 0.0 | |||||||
| 06 | 04:15 | S 11 | 16.09 | Overcast | OVC042 | 19 | 14 | 73% | 76 | 0.0 | |||||||
| 06 | 03:55 | S 9 | 16.09 | Overcast | OVC044 | 19 | 14 | 73% | 76 | 0.0 | |||||||
| 06 | 03:35 | S 7 | 16.09 | Overcast | OVC044 | 19 | 13 | 68% | 76.02 | 0.0 | |||||||
| 06 | 03:15 | Vrbl 7 | 16.09 | Overcast | OVC045 | 19 | 12 | 64% | 76.02 | 0.0 | |||||||
| 06 | 02:55 | S 9 | 16.09 | Overcast | BKN040 OVC048 | 19 | 12 | 64% | 76.02 | 0.0 | |||||||
| 06 | 02:35 | S 11 | 16.09 | Overcast | BKN040 OVC048 | 20 | 11 | 56% | 76.05 | 0.0 | |||||||
| 06 | 02:15 | Vrbl 11 | 16.09 | Overcast | BKN041 BKN047 OVC070 | 19 | 11 | 60% | 76.05 | 0.0 | |||||||
| 06 | 01:55 | S 9 | 16.09 | Overcast | OVC042 | 20 | 11 | 56% | 76.1 | 0.0 | |||||||
| 06 | 01:35 | S 11 | 16.09 | Overcast | OVC044 | 20 | 10 | 53% | 76.07 | 0.0 | |||||||
| 06 | 01:15 | S 9 | 16.09 | Overcast | OVC046 | 20 | 10 | 53% | 76.07 | 0.0 | |||||||
| 06 | 00:55 | S 9 | 16.09 | Overcast | OVC049 | 20 | 10 | 53% | 76.1 | 0.0 | |||||||
| 06 | 00:35 | Vrbl 7 | 16.09 | Overcast | OVC050 | 20 | 10 | 53% | 76.07 | 0.0 | |||||||
| 06 | 00:15 | S 9 | 16.09 | Overcast | BKN050 OVC060 | 20 | 10 | 53% | 76.1 | 0.0 | |||||||
| 05 | 23:55 | S 7 | 16.09 | Overcast | SCT050 OVC060 | 20 | 10 | 53% | 76.07 | 0.0 | |||||||
| 05 | 23:35 | S 6 | 16.09 | Overcast | OVC050 | 20 | 10 | 53% | 76.07 | 0.0 | |||||||
| 05 | 23:15 | Vrbl 7 | 16.09 | Overcast | BKN050 OVC070 | 20 | 10 | 53% | 76.1 | 0.0 | |||||||
| 05 | 22:55 | S 9 | 16.09 | Overcast | BKN055 OVC070 | 20 | 10 | 53% | 76.1 | 0.0 | |||||||
| 05 | 22:35 | S 7 | 16.09 | Overcast | BKN055 OVC070 | 19 | 10 | 56% | 76.1 | 0.0 | |||||||
| 05 | 22:15 | Calm | 16.09 | Overcast | FEW055 OVC070 | 20 | 11 | 56% | 76.07 | 0.0 | |||||||
| 05 | 21:55 | S 9 | 16.09 | Overcast | BKN055 OVC075 | 20 | 11 | 56% | 76.07 | 0.0 | |||||||
| 05 | 21:35 | S 7 | 16.09 | Overcast | BKN060 OVC065 | 20 | 11 | 56% | 76.07 | 0.0 | |||||||
| 05 | 20:55 | S 6 | 16.09 | Overcast | FEW070 OVC080 | 20 | 11 | 56% | 76.05 | 0.0 | |||||||
| 05 | 20:35 | Calm | 16.09 | Partly Cloudy | SCT085 | 19 | 12 | 64% | 76.02 | 0.0 | |||||||
| 05 | 20:15 | S 6 | 16.09 | A Few Clouds | FEW110 | 20 | 11 | 56% | 76.05 | 0.0 | |||||||
| 05 | 19:55 | S 9 | 16.09 | Mostly Cloudy | BKN110 | 21 | 10 | 50% | 76.05 | 0.0 | |||||||
| 05 | 19:35 | S 11 | 16.09 | Overcast | OVC110 | 21 | 10 | 50% | 76.05 | 0.0 | |||||||
| 05 | 19:15 | S 9 | 16.09 | Mostly Cloudy | BKN110 | 22 | 10 | 47% | 76.02 | 0.0 | |||||||
| 05 | 18:55 | Calm | 16.09 | Mostly Cloudy | BKN110 | 22 | 10 | 47% | 76.07 | 0.0 | |||||||
| 05 | 18:35 | S 7 | 16.09 | Fair | CLR | 23 | 9 | 41% | 76.05 | 0.0 | |||||||
| 05 | 18:15 | S 9 | 16.09 | Fair | CLR | 23 | 9 | 41% | 76.07 | 0.0 | |||||||
| 05 | 17:55 | SW 15 G 24 | 16.09 | A Few Clouds | FEW110 | 23 | 9 | 41% | 76.1 | 0.0 | |||||||
| 05 | 17:35 | S 17 G 26 | 16.09 | Fair | CLR | 23 | 9 | 41% | 76.05 | 0.0 | |||||||
| 05 | 17:15 | S 9 G 26 | 16.09 | Fair | CLR | 24 | 9 | 39% | 25 | 76.05 | 0.0 | ||||||
| 05 | 16:55 | S 20 G 33 | 16.09 | Fair | CLR | 25 | 8 | 34% | 26 | 76.07 | 0.0 | ||||||
| 05 | 16:35 | S 17 | 16.09 | Fair | CLR | 25 | 9 | 36% | 26 | 76.07 | 0.0 | ||||||
| 05 | 16:15 | S 20 G 33 | 16.09 | Fair | CLR | 25 | 8 | 34% | 26 | 76.07 | 0.0 | ||||||
| 05 | 15:55 | S 20 G 31 | 16.09 | Fair | CLR | 25 | 8 | 34% | 26 | 76.1 | 0.0 | ||||||
| 05 | 15:35 | S 19 G 28 | 16.09 | Fair | CLR | 25 | 7 | 32% | 25 | 76.12 | 0.0 | ||||||
| 05 | 15:15 | S 19 G 30 | 16.09 | Fair | CLR | 25 | 8 | 34% | 26 | 76.12 | 0.0 | ||||||
| 05 | 14:55 | S 19 G 33 | 16.09 | Fair | CLR | 25 | 8 | 34% | 26 | 76.17 | 0.0 | ||||||
| 05 | 14:35 | S 19 G 28 | 16.09 | Fair | CLR | 25 | 11 | 42% | 26 | 76.15 | 0.0 | ||||||
| 05 | 14:15 | S 24 | 16.09 | Fair | CLR | 25 | 10 | 39% | 26 | 76.17 | 0.0 | ||||||
| 05 | 13:55 | S 22 G 33 | 16.09 | Fair | CLR | 25 | 10 | 39% | 26 | 76.2 | 0.0 | ||||||
| 05 | 13:35 | S 20 G 37 | 16.09 | Fair | CLR | 24 | 10 | 41% | 25 | 76.23 | 0.0 | ||||||
| 05 | 13:15 | S 13 G 30 | 16.09 | Fair | CLR | 24 | 10 | 41% | 25 | 76.25 | 0.0 | ||||||
| 05 | 12:55 | Vrbl 9 G 31 | 16.09 | Fair | CLR | 24 | 9 | 39% | 25 | 76.25 | 0.0 | ||||||
| 05 | 12:35 | S 28 | 16.09 | Fair | CLR | 23 | 9 | 41% | 76.25 | 0.0 | |||||||
| 05 | 12:15 | S 19 G 33 | 16.09 | Fair | CLR | 23 | 9 | 41% | 76.25 | 0.0 | |||||||
| 05 | 11:55 | S 15 G 24 | 16.09 | Fair | CLR | 23 | 10 | 44% | 76.28 | 0.0 | |||||||
| 05 | 11:35 | Vrbl 11 | 16.09 | Fair | CLR | 22 | 12 | 53% | 76.28 | 0.0 | |||||||
| 05 | 11:15 | SE 9 | 16.09 | Fair | CLR | 21 | 13 | 60% | 76.28 | 0.0 | |||||||
| 05 | 10:55 | Vrbl 7 | 16.09 | Fair | CLR | 21 | 13 | 60% | 76.3 | 0.0 | |||||||
| 05 | 10:35 | Vrbl 7 | 16.09 | Fair | CLR | 19 | 12 | 64% | 76.28 | 0.0 | |||||||
| 05 | 10:15 | Vrbl 9 | 16.09 | Fair | CLR | 18 | 11 | 64% | 76.28 | 0.0 | |||||||
| 05 | 09:55 | Vrbl 6 | 16.09 | Fair | CLR | 18 | 12 | 68% | 76.28 | 0.0 | |||||||
| 05 | 09:15 | Calm | 16.09 | Fair | CLR | 14 | 12 | 88% | 76.28 | 0.0 | |||||||
| 05 | 08:55 | Calm | 16.09 | Fair | CLR | 13 | 12 | 94% | 76.23 | 0.0 | |||||||
| 05 | 08:35 | Calm | 16.09 | Fair | CLR | 12 | 12 | 100% | 76.23 | 0.0 | |||||||
| 05 | 08:15 | Calm | 3.22 | Fog/Mist | CLR | 11 | 11 | 100% | 76.23 | 0.0 | |||||||
| 05 | 07:55 | Calm | 3.22 | Fog/Mist | CLR | 10 | 10 | 100% | 76.23 | 0.0 | |||||||
| 05 | 07:35 | Calm | 2.82 | Fog/Mist | CLR | 9 | 9 | 100% | 76.2 | 0.0 | |||||||
| 05 | 07:15 | Calm | 4.83 | Fog/Mist | CLR | 8 | 8 | 100% | 76.17 | 0.0 | |||||||
| 05 | 06:55 | Calm | 12.87 | Fair | CLR | 7 | 7 | 100% | 76.17 | 0.0 | |||||||
| 05 | 06:35 | N 7 | 4.02 | Fog/Mist | CLR | 7 | 7 | 100% | 6 | 76.15 | 0.0 | ||||||
| 05 | 05:55 | N 6 | 4.83 | Fog/Mist | CLR | 7 | 7 | 100% | 76.15 | 0.0 | |||||||
| 05 | 05:35 | Calm | 6.44 | Fog/Mist | CLR | 7 | 7 | 100% | 76.15 | 0.0 | |||||||
| 05 | 05:15 | Calm | 3.22 | Fog/Mist | CLR | 8 | 8 | 100% | 76.15 | 0.0 | |||||||
| 05 | 04:55 | Calm | 6.44 | Fog/Mist | CLR | 8 | 8 | 100% | 76.15 | 0.0 | |||||||
| 05 | 04:35 | Calm | 6.44 | Fog/Mist | CLR | 8 | 8 | 100% | 76.17 | 0.0 | |||||||
| 05 | 04:15 | Calm | 6.44 | Fog/Mist | CLR | 8 | 8 | 100% | 76.17 | 0.0 | |||||||
| 05 | 03:55 | Calm | 12.87 | Fair | CLR | 9 | 9 | 100% | 76.15 | 0.0 | |||||||
| 05 | 03:35 | Calm | 14.48 | Fair | CLR | 10 | 10 | 100% | 76.15 | 0.0 | |||||||
| 05 | 03:15 | Calm | 8.05 | Fog/Mist | CLR | 10 | 10 | 100% | 76.17 | 0.0 | |||||||
| 05 | 02:55 | Calm | 16.09 | Fair | CLR | 11 | 11 | 100% | 76.17 | 0.0 | |||||||
| 05 | 02:35 | Calm | 16.09 | Fair | CLR | 11 | 10 | 94% | 76.17 | 0.0 | |||||||
| 05 | 02:15 | Calm | 16.09 | Fair | CLR | 10 | 10 | 100% | 76.17 | 0.0 | |||||||
| 05 | 01:55 | Calm | 14.48 | Fair | CLR | 11 | 11 | 100% | 76.17 | 0.0 | |||||||
| 05 | 01:35 | Calm | 16.09 | Fair | CLR | 11 | 11 | 100% | 76.2 | 0.0 | |||||||
| 05 | 01:15 | Calm | 16.09 | Fair | CLR | 12 | 11 | 94% | 76.2 | 0.0 | |||||||
| 05 | 00:55 | Calm | 16.09 | Fair | CLR | 12 | 11 | 94% | 76.17 | 0.0 | |||||||
| 05 | 00:35 | Calm | 16.09 | Fair | CLR | 12 | 10 | 88% | 76.17 | 0.0 | |||||||
| 05 | 00:15 | Calm | 16.09 | Fair | CLR | 13 | 11 | 88% | 76.17 | 0.0 | |||||||
| 04 | 23:55 | Calm | 16.09 | Fair | CLR | 14 | 11 | 82% | 76.17 | 0.0 | |||||||
| 04 | 23:35 | Calm | 16.09 | Fair | CLR | 14 | 11 | 82% | 76.17 | 0.0 | |||||||
| 04 | 23:15 | Calm | 16.09 | Fair | CLR | 14 | 12 | 88% | 76.17 | 0.0 | |||||||
| 04 | 22:55 | Calm | 16.09 | Fair | CLR | 14 | 12 | 88% | 76.2 | 0.0 | |||||||
| 04 | 22:35 | S 6 | 16.09 | Fair | CLR | 15 | 12 | 82% | 76.17 | 0.0 | |||||||
| 04 | 22:15 | S 6 | 16.09 | Fair | CLR | 15 | 13 | 88% | 76.17 | 0.0 | |||||||
| 04 | 21:55 | Calm | 16.09 | Fair | CLR | 15 | 13 | 88% | 76.15 | 0.0 | |||||||
| 04 | 21:35 | Calm | 16.09 | Fair | CLR | 15 | 13 | 88% | 76.15 | 0.0 | |||||||
| 04 | 21:15 | Calm | 16.09 | Fair | CLR | 17 | 12 | 73% | 76.12 | 0.0 | |||||||
| 04 | 20:55 | Calm | 16.09 | Fair | CLR | 17 | 12 | 73% | 76.12 | 0.0 | |||||||
| 04 | 20:15 | Calm | 16.09 | Fair | CLR | 20 | 11 | 56% | 76.1 | 0.0 | |||||||
| 04 | 19:55 | Calm | 16.09 | Fair | CLR | 21 | 10 | 50% | 76.1 | 0.0 | |||||||
| 04 | 19:35 | Calm | 16.09 | Fair | CLR | 22 | 9 | 44% | 76.1 | 0.0 | |||||||
| 04 | 19:15 | Calm | 16.09 | Fair | CLR | 22 | 9 | 44% | 76.12 | 0.0 | |||||||
| 04 | 18:55 | Calm | 16.09 | Fair | CLR | 22 | 9 | 44% | 76.12 | 0.0 | |||||||
| 04 | 18:35 | S 13 | 16.09 | Fair | CLR | 23 | 9 | 41% | 76.12 | 0.0 | |||||||
| 04 | 18:15 | S 17 | 16.09 | Fair | CLR | 23 | 9 | 41% | 76.12 | 0.0 | |||||||
| 04 | 17:55 | SW 13 G 26 | 16.09 | Fair | CLR | 24 | 10 | 41% | 25 | 76.12 | 0.0 | ||||||
| 04 | 17:35 | Vrbl 9 | 16.09 | Fair | CLR | 24 | 10 | 41% | 25 | 76.12 | 0.0 | ||||||
| 04 | 17:15 | S 15 | 16.09 | Fair | CLR | 24 | 9 | 39% | 25 | 76.1 | 0.0 | ||||||
| 04 | 16:55 | SW 15 | 16.09 | Fair | CLR | 24 | 9 | 39% | 25 | 76.12 | 0.0 | ||||||
| 04 | 16:35 | Calm | 16.09 | Fair | CLR | 23 | 9 | 41% | 76.12 | 0.0 | |||||||
| 04 | 16:15 | S 13 | 16.09 | Fair | CLR | 24 | 9 | 39% | 25 | 76.15 | 0.0 | ||||||
| 04 | 15:55 | Vrbl 9 G 20 | 16.09 | Fair | CLR | 24 | 10 | 41% | 25 | 76.17 | 0.0 | ||||||
| 04 | 15:35 | W 15 | 16.09 | Fair | CLR | 24 | 11 | 44% | 25 | 76.17 | 0.0 | ||||||
| 04 | 15:15 | Vrbl 7 G 22 | 16.09 | Fair | CLR | 22 | 10 | 47% | 76.2 | 0.0 | |||||||
| 04 | 14:55 | SW 15 | 16.09 | Fair | CLR | 24 | 10 | 41% | 25 | 76.23 | 0.0 | ||||||
| 04 | 14:35 | Vrbl 6 | 16.09 | Fair | CLR | 23 | 9 | 41% | 76.23 | 0.0 | |||||||
| 04 | 14:15 | SW 9 | 16.09 | Fair | CLR | 23 | 10 | 44% | 76.25 | 0.0 | |||||||
| 04 | 13:55 | Vrbl 7 | 16.09 | Fair | CLR | 22 | 10 | 47% | 76.28 | 0.0 | |||||||
| 04 | 13:35 | Vrbl 7 | 16.09 | Fair | CLR | 22 | 10 | 47% | 76.28 | 0.0 | |||||||
| 04 | 13:15 | Calm | 16.09 | Fair | CLR | 21 | 9 | 46% | 76.33 | 0.0 | |||||||
| 04 | 12:55 | Vrbl 7 | 16.09 | Fair | CLR | 21 | 9 | 46% | 76.33 | 0.0 | |||||||
| 04 | 12:35 | SW 11 | 16.09 | Fair | CLR | 21 | 9 | 46% | 76.35 | 0.0 | |||||||
| 04 | 12:15 | W 9 | 16.09 | Fair | CLR | 20 | 8 | 46% | 76.35 | 0.0 | |||||||
| 04 | 11:55 | Vrbl 7 | 16.09 | Fair | CLR | 20 | 8 | 46% | 76.38 | 0.0 | |||||||
| 04 | 11:35 | Vrbl 7 | 16.09 | Fair | CLR | 20 | 8 | 46% | 76.4 | 0.0 | |||||||
| 04 | 11:15 | Vrbl 7 | 16.09 | Fair | CLR | 19 | 8 | 49% | 76.4 | 0.0 | |||||||
| 04 | 10:55 | Vrbl 6 | 16.09 | Fair | CLR | 18 | 8 | 52% | 76.43 | 0.0 | |||||||
| 04 | 10:35 | Calm | 16.09 | Fair | CLR | 18 | 8 | 52% | 76.43 | 0.0 | |||||||
| 04 | 10:15 | Calm | 16.09 | Fair | CLR | 16 | 8 | 59% | 76.43 | 0.0 | |||||||
| 04 | 09:55 | Calm | 16.09 | Fair | CLR | 15 | 10 | 72% | 76.43 | 0.0 | |||||||
| 04 | 09:35 | Calm | 16.09 | Fair | CLR | 14 | 10 | 77% | 76.43 | 0.0 | |||||||
| 04 | 09:15 | Calm | 16.09 | Fair | CLR | 12 | 9 | 82% | 76.43 | 0.0 | |||||||
| 04 | 08:55 | Calm | 16.09 | Fair | CLR | 10 | 9 | 94% | 76.43 | 0.0 | |||||||
| 04 | 08:35 | Calm | 16.09 | Fair | CLR | 9 | 9 | 100% | 76.43 | 0.0 | |||||||
| 04 | 08:15 | Calm | 16.09 | Fair | CLR | 8 | 8 | 100% | 76.43 | 0.0 | |||||||
| 04 | 07:55 | Calm | 16.09 | Fair | CLR | 6 | 6 | 100% | 76.43 | 0.0 | |||||||
| 04 | 07:35 | Calm | 16.09 | Fair | CLR | 5 | 5 | 100% | 76.43 | 0.0 | |||||||
| 04 | 07:15 | Calm | 14.48 | Fair | CLR | 4 | 4 | 100% | 76.4 | 0.0 | |||||||
| 04 | 06:55 | Calm | 16.09 | Fair | CLR | 4 | 4 | 100% | 76.4 | 0.0 | |||||||
| 04 | 06:35 | Calm | 14.48 | Fair | CLR | 4 | 4 | 100% | 76.38 | 0.0 | |||||||
| 04 | 06:15 | Calm | 16.09 | Fair | CLR | 4 | 4 | 100% | 76.38 | 0.0 | |||||||
| 04 | 05:55 | N 6 | 14.48 | A Few Clouds | FEW055 | 4 | 4 | 100% | 76.38 | 0.0 | |||||||
| 04 | 05:35 | Calm | 14.48 | Fair | CLR | 4 | 4 | 100% | 76.38 | 0.0 | |||||||
| 04 | 05:15 | N 6 | 16.09 | Fair | CLR | 5 | 5 | 100% | 76.38 | 0.0 | |||||||
| 04 | 04:55 | N 6 | 16.09 | Fair | CLR | 4 | 4 | 100% | 76.38 | 0.0 | |||||||
| 04 | 04:35 | Calm | 9.66 | Fog/Mist | CLR | 4 | 4 | 100% | 76.38 | 0.0 | |||||||
| 04 | 04:15 | Calm | 14.48 | Fair | CLR | 5 | 5 | 100% | 76.35 | 0.0 | |||||||
| 04 | 03:55 | Calm | 14.48 | A Few Clouds | FEW050 FEW065 | 5 | 5 | 100% | 76.38 | 0.0 | |||||||
| 04 | 03:35 | Calm | 14.48 | Fair | CLR | 5 | 5 | 100% | 76.35 | 0.0 | |||||||
| 04 | 03:15 | Calm | 16.09 | A Few Clouds | FEW050 FEW070 | 5 | 5 | 100% | 76.38 | 0.0 | |||||||
| 04 | 02:55 | Calm | 14.48 | A Few Clouds | FEW055 FEW070 FEW080 | 5 | 5 | 100% | 76.4 | 0.0 | |||||||
| 04 | 02:35 | Calm | 9.66 | Fog/Mist | FEW060 FEW070 | 6 | 6 | 100% | 76.4 | 0.0 | |||||||
| 04 | 02:15 | Calm | 14.48 | Fair | CLR | 6 | 6 | 100% | 76.43 | 0.0 | |||||||
| 04 | 01:55 | Calm | 14.48 | A Few Clouds | FEW070 | 6 | 6 | 100% | 76.43 | 0.0 | |||||||
| 04 | 01:35 | Calm | 16.09 | Fair | CLR | 6 | 6 | 100% | 76.43 | 0.0 | |||||||
| 04 | 01:15 | Calm | 16.09 | Fair | CLR | 6 | 6 | 100% | 76.43 | 0.0 | |||||||
| 04 | 00:55 | Calm | 16.09 | A Few Clouds | FEW060 | 6 | 6 | 100% | 76.45 | 0.0 | |||||||
| 04 | 00:35 | N 6 | 16.09 | A Few Clouds | FEW060 | 6 | 6 | 100% | 76.43 | 0.0 | |||||||
| 04 | 00:15 | Calm | 14.48 | A Few Clouds | FEW060 | 7 | 7 | 100% | 76.43 | 0.0 | |||||||
| 03 | 23:55 | Calm | 16.09 | Fair | CLR | 7 | 7 | 100% | 76.4 | 0.0 | |||||||
| 03 | 23:35 | Calm | 16.09 | Fair | CLR | 8 | 8 | 100% | 76.4 | 0.0 | |||||||
| 03 | 23:15 | Calm | 14.48 | Fair | CLR | 8 | 8 | 100% | 76.4 | 0.0 | |||||||
| 03 | 22:55 | Calm | 14.48 | A Few Clouds | FEW060 FEW070 | 9 | 8 | 94% | 76.4 | 0.0 | |||||||
| 03 | 22:35 | Calm | 14.48 | A Few Clouds | FEW060 | 9 | 9 | 100% | 76.4 | 0.0 | |||||||
| 03 | 22:15 | Calm | 8.05 | Fog/Mist | FEW060 | 9 | 9 | 100% | 76.4 | 0.0 | |||||||
| 03 | 21:55 | Calm | 9.66 | Fog/Mist | CLR | 10 | 9 | 94% | 76.38 | 0.0 | |||||||
| 03 | 21:35 | Calm | 12.87 | Fair | CLR | 10 | 8 | 88% | 76.38 | 0.0 | |||||||
| 03 | 21:15 | Calm | 16.09 | Fair | CLR | 11 | 7 | 77% | 76.35 | 0.0 | |||||||
| 03 | 20:55 | Calm | 16.09 | Fair | CLR | 12 | 7 | 72% | 76.35 | 0.0 | |||||||
| 03 | 20:35 | Calm | 16.09 | Fair | CLR | 13 | 6 | 63% | 76.33 | 0.0 | |||||||
| 03 | 20:15 | Calm | 16.09 | Fair | CLR | 14 | 6 | 59% | 76.33 | 0.0 | |||||||
| 03 | 19:55 | Calm | 16.09 | Fair | CLR | 16 | 4 | 45% | 76.33 | 0.0 | |||||||
| Date | Time (edt) | Wind (kph) | Vis. (km) | Weather | Sky Cond. | Air | Dwpt | Max. | Min. | Relative Humidity | Wind Chill (°C) | Heat Index (°C) | altimeter (cm) | sea level (mb) | 1 hr | 3 hr | 6 hr |
| 6 hour | |||||||||||||||||
| Temperature (ºC) | Pressure | Precipitation (cm) | |||||||||||||||